createdAt,value
2018-03-14T00:00:48.248Z,97007.09
2018-03-14T00:03:15.648Z,97003.16
2018-03-14T00:05:43.052Z,97000.23
2018-03-14T00:08:10.476Z,97004.44
2018-03-14T00:10:37.996Z,96995.97
2018-03-14T00:13:06.210Z,97004.23
2018-03-14T00:15:33.600Z,97005.57
2018-03-14T00:18:01.009Z,97003.55
2018-03-14T00:20:28.407Z,97002.49
2018-03-14T00:22:55.808Z,96994.08
2018-03-14T00:27:44.281Z,97002.88
2018-03-14T00:30:11.789Z,97003.30
2018-03-14T00:32:39.185Z,97011.30
2018-03-14T00:35:06.596Z,97005.19
2018-03-14T00:37:34.640Z,97008.56
2018-03-14T00:40:02.032Z,97008.58
2018-03-14T00:42:29.467Z,97015.91
2018-03-14T00:44:56.864Z,97018.29
2018-03-14T00:47:24.260Z,97017.62
2018-03-14T00:49:52.384Z,97011.95
2018-03-14T00:52:19.806Z,97016.61
2018-03-14T00:54:47.214Z,97013.72
2018-03-14T00:57:14.607Z,97007.63
2018-03-14T00:59:42.018Z,97008.02
2018-03-14T01:02:09.441Z,97014.42
2018-03-14T01:04:36.863Z,97011.70
2018-03-14T01:07:04.272Z,97012.00
2018-03-14T01:09:31.687Z,97011.46
2018-03-14T01:11:59.089Z,97011.24
2018-03-14T01:14:26.488Z,97006.44
2018-03-14T01:16:53.887Z,97003.88
2018-03-14T01:19:21.325Z,96997.19
2018-03-14T01:21:48.831Z,96994.09
2018-03-14T01:24:16.308Z,97000.86
2018-03-14T01:26:43.705Z,96998.06
2018-03-14T01:29:11.156Z,96996.11
2018-03-14T01:31:38.575Z,96992.06
2018-03-14T01:34:05.999Z,96990.34
2018-03-14T01:36:33.414Z,96986.98
2018-03-14T01:39:01.299Z,96989.10
2018-03-14T01:41:28.722Z,96985.56
2018-03-14T01:43:56.131Z,96987.85
2018-03-14T01:46:23.708Z,96980.34
2018-03-14T01:48:51.099Z,96982.55
2018-03-14T01:51:18.751Z,96974.08
2018-03-14T01:53:46.190Z,96972.37
2018-03-14T01:56:13.603Z,96971.77
2018-03-14T01:58:41.027Z,96969.64
2018-03-14T02:01:08.484Z,96973.00
2018-03-14T02:03:35.917Z,96973.02
2018-03-14T02:06:03.339Z,96966.50
2018-03-14T02:08:30.905Z,96959.73
2018-03-14T02:10:58.415Z,96951.91
2018-03-14T02:13:25.845Z,96948.83
2018-03-14T02:15:54.052Z,96948.64
2018-03-14T02:18:21.518Z,96945.09
2018-03-14T02:20:48.950Z,96949.58
2018-03-14T02:23:16.350Z,96953.71
2018-03-14T02:25:44.688Z,96943.99
2018-03-14T02:28:12.188Z,96941.31
2018-03-14T02:30:39.628Z,96933.41
2018-03-14T02:33:07.098Z,96922.18
2018-03-14T02:35:34.532Z,96924.98
2018-03-14T02:38:01.979Z,96924.09
2018-03-14T02:40:29.838Z,96928.78
2018-03-14T02:42:57.244Z,96932.62
2018-03-14T02:45:25.618Z,96930.73
2018-03-14T02:47:53.037Z,96930.13
2018-03-14T02:50:20.650Z,96920.13
2018-03-14T02:52:48.130Z,96919.85
2018-03-14T02:55:15.703Z,96916.58
2018-03-14T02:57:43.153Z,96911.95
2018-03-14T03:00:10.600Z,96905.10
2018-03-14T03:02:38.016Z,96902.06
2018-03-14T03:05:05.478Z,96907.63
2018-03-14T03:07:32.927Z,96908.61
2018-03-14T03:10:00.357Z,96907.31
2018-03-14T03:12:28.819Z,96916.73
2018-03-14T03:14:56.324Z,96903.25
2018-03-14T03:17:23.793Z,96906.20
2018-03-14T03:19:51.345Z,96903.97
2018-03-14T03:22:18.769Z,96904.91
2018-03-14T03:24:46.201Z,96901.42
2018-03-14T03:27:13.656Z,96895.11
2018-03-14T03:29:41.073Z,96901.19
2018-03-14T03:32:08.513Z,96896.03
2018-03-14T03:34:35.942Z,96896.52
2018-03-14T03:37:03.366Z,96891.08
2018-03-14T03:39:30.754Z,96898.40
2018-03-14T03:41:58.207Z,96895.77
2018-03-14T03:44:25.678Z,96892.31
2018-03-14T03:46:53.106Z,96895.64
2018-03-14T03:49:20.576Z,96891.11
2018-03-14T03:51:48.001Z,96893.94
2018-03-14T03:54:15.569Z,96892.22
2018-03-14T03:56:43.030Z,96899.12
2018-03-14T03:59:10.501Z,96888.73
2018-03-14T04:01:37.986Z,96883.85
2018-03-14T04:04:05.422Z,96884.16
2018-03-14T04:06:32.947Z,96892.89
2018-03-14T04:09:00.649Z,96897.00
2018-03-14T04:11:28.072Z,96895.02
2018-03-14T04:13:56.128Z,96895.19
2018-03-14T04:16:23.586Z,96895.56
2018-03-14T04:18:50.971Z,96889.53
2018-03-14T04:21:18.532Z,96882.82
2018-03-14T04:23:45.990Z,96873.63
2018-03-14T04:26:13.413Z,96868.55
2018-03-14T04:28:40.950Z,96873.34
2018-03-14T04:31:08.364Z,96865.34
2018-03-14T04:33:35.803Z,96871.62
2018-03-14T04:36:03.238Z,96873.50
2018-03-14T04:38:30.668Z,96875.98
2018-03-14T04:40:58.125Z,96879.67
2018-03-14T04:43:25.721Z,96884.23
2018-03-14T04:45:53.148Z,96877.13
2018-03-14T04:48:20.565Z,96869.41
2018-03-14T04:50:47.995Z,96867.30
2018-03-14T04:53:15.422Z,96862.48
2018-03-14T04:55:42.845Z,96867.03
2018-03-14T04:58:11.145Z,96864.84
2018-03-14T05:00:38.577Z,96862.47
2018-03-14T05:03:06.063Z,96865.20
2018-03-14T05:05:33.496Z,96856.30
2018-03-14T05:08:00.902Z,96856.30
2018-03-14T05:10:28.328Z,96860.53
2018-03-14T05:12:55.763Z,96862.41
2018-03-14T05:15:23.434Z,96857.05
2018-03-14T05:17:50.865Z,96855.91
2018-03-14T05:20:18.260Z,96853.02
2018-03-14T05:22:46.491Z,96865.85
2018-03-14T05:25:13.922Z,96858.27
2018-03-14T05:27:41.346Z,96860.46
2018-03-14T05:30:08.804Z,96853.02
2018-03-14T05:32:36.252Z,96853.12
2018-03-14T05:35:03.709Z,96853.37
2018-03-14T05:37:31.249Z,96853.30
2018-03-14T05:39:58.715Z,96855.86
2018-03-14T05:42:26.192Z,96855.01
2018-03-14T05:44:53.617Z,96856.50
2018-03-14T05:47:21.017Z,96854.52
2018-03-14T05:49:48.685Z,96858.27
2018-03-14T05:52:16.111Z,96858.38
2018-03-14T05:54:43.530Z,96858.00
2018-03-14T05:57:11.007Z,96855.77
2018-03-14T05:59:39.137Z,96855.25
2018-03-14T06:02:06.561Z,96862.67
2018-03-14T06:04:34.758Z,96860.95
2018-03-14T06:07:02.204Z,96860.75
2018-03-14T06:09:29.632Z,96859.43
2018-03-14T06:11:57.981Z,96859.31
2018-03-14T06:14:25.442Z,96857.57
2018-03-14T06:16:52.935Z,96859.83
2018-03-14T06:19:20.912Z,96858.72
2018-03-14T06:21:48.310Z,96862.02
2018-03-14T06:24:15.770Z,96864.38
2018-03-14T06:26:43.238Z,96869.47
2018-03-14T06:29:10.669Z,96878.45
2018-03-14T06:31:38.106Z,96880.23
2018-03-14T06:34:05.537Z,96874.41
2018-03-14T06:36:33.018Z,96874.09
2018-03-14T06:39:00.441Z,96872.13
2018-03-14T06:41:27.918Z,96863.09
2018-03-14T06:43:55.437Z,96863.86
2018-03-14T06:46:22.926Z,96855.39
2018-03-14T06:48:50.792Z,96849.05
2018-03-14T06:51:18.231Z,96847.88
2018-03-14T06:53:45.801Z,96848.42
2018-03-14T06:56:13.280Z,96860.07
2018-03-14T06:58:52.454Z,96849.62
2018-03-14T07:01:32.661Z,96840.73
2018-03-14T07:04:12.018Z,96844.70
2018-03-14T07:06:39.437Z,96851.34
2018-03-14T07:09:06.873Z,96858.06
2018-03-14T07:11:34.390Z,96853.42
2018-03-14T07:14:01.829Z,96857.70
2018-03-14T07:16:29.291Z,96847.22
2018-03-14T07:18:56.770Z,96849.96
2018-03-14T07:21:24.785Z,96853.49
2018-03-14T07:23:52.244Z,96859.74
2018-03-14T07:26:19.636Z,96861.01
2018-03-14T07:28:47.105Z,96861.59
2018-03-14T07:31:14.551Z,96859.27
2018-03-14T07:33:42.014Z,96855.02
2018-03-14T07:36:09.474Z,96853.70
2018-03-14T07:38:36.911Z,96853.01
2018-03-14T07:41:04.487Z,96851.48
2018-03-14T07:43:31.946Z,96857.99
2018-03-14T07:45:59.396Z,96865.45
2018-03-14T07:48:26.858Z,96867.30
2018-03-14T07:50:54.334Z,96865.34
2018-03-14T07:53:21.810Z,96871.05
2018-03-14T07:55:49.246Z,96862.88
2018-03-14T07:58:16.697Z,96868.67
2018-03-14T08:00:44.247Z,96864.02
2018-03-14T08:03:11.761Z,96863.82
2018-03-14T08:05:39.247Z,96852.98
2018-03-14T08:08:06.690Z,96853.89
2018-03-14T08:10:34.082Z,96853.33
2018-03-14T08:13:01.979Z,96854.08
2018-03-14T08:15:29.468Z,96854.05
2018-03-14T08:17:56.905Z,96858.14
2018-03-14T08:20:24.342Z,96854.59
2018-03-14T08:22:51.805Z,96854.87
2018-03-14T08:25:19.230Z,96858.46
2018-03-14T08:27:46.820Z,96867.73
2018-03-14T08:30:14.283Z,96854.96
2018-03-14T08:32:41.729Z,96860.36
2018-03-14T08:35:09.315Z,96856.50
2018-03-14T08:37:36.811Z,96865.09
2018-03-14T08:40:04.426Z,96858.08
2018-03-14T08:42:31.936Z,96848.58
2018-03-14T08:44:59.353Z,96855.99
2018-03-14T08:47:26.793Z,96852.73
2018-03-14T08:49:54.485Z,96854.05
2018-03-14T08:52:21.922Z,96854.09
2018-03-14T08:54:49.451Z,96853.31
2018-03-14T08:57:17.029Z,96852.63
2018-03-14T08:59:44.476Z,96846.57
2018-03-14T09:02:12.240Z,96839.30
2018-03-14T09:04:39.732Z,96840.06
2018-03-14T09:07:07.193Z,96843.82
2018-03-14T09:09:34.649Z,96845.16
2018-03-14T09:12:02.102Z,96842.84
2018-03-14T09:14:29.568Z,96835.65
2018-03-14T09:16:57.019Z,96833.47
2018-03-14T09:19:24.725Z,96834.05
2018-03-14T09:21:52.197Z,96837.59
2018-03-14T09:24:19.653Z,96836.20
2018-03-14T09:26:48.752Z,96839.63
2018-03-14T09:29:16.270Z,96827.93
2018-03-14T09:31:43.900Z,96835.39
2018-03-14T09:34:11.437Z,96824.63
2018-03-14T09:36:38.865Z,96815.59
2018-03-14T09:39:06.289Z,96819.98
2018-03-14T09:41:33.733Z,96803.65
2018-03-14T09:44:01.199Z,96801.65
2018-03-14T09:46:28.603Z,96797.84
2018-03-14T09:48:56.090Z,96793.86
2018-03-14T09:51:23.618Z,96793.68
2018-03-14T09:53:51.367Z,96794.00
2018-03-14T09:56:18.892Z,96779.80
2018-03-14T09:58:46.287Z,96772.41
2018-03-14T10:01:13.734Z,96767.59
2018-03-14T10:03:41.338Z,96762.03
2018-03-14T10:06:08.802Z,96766.63
2018-03-14T10:08:36.245Z,96763.13
2018-03-14T10:11:03.745Z,96759.21
2018-03-14T10:13:31.178Z,96749.56
2018-03-14T10:15:58.687Z,96755.58
2018-03-14T10:18:26.133Z,96747.14
2018-03-14T10:20:53.520Z,96735.75
2018-03-14T10:23:20.953Z,96732.85
2018-03-14T10:25:48.476Z,96729.67
2018-03-14T10:28:15.788Z,96725.94
2018-03-14T10:30:43.223Z,96723.91
2018-03-14T10:33:10.665Z,96717.19
2018-03-14T10:35:38.279Z,96719.23
2018-03-14T10:38:05.731Z,96716.94
2018-03-14T10:40:33.128Z,96700.75
2018-03-14T10:43:00.755Z,96707.45
2018-03-14T10:45:28.265Z,96696.56
2018-03-14T10:47:55.921Z,96700.37
2018-03-14T10:50:23.409Z,96687.52
2018-03-14T10:52:51.759Z,96678.82
2018-03-14T10:55:19.212Z,96670.98
2018-03-14T10:57:46.664Z,96666.19
2018-03-14T11:00:19.610Z,96661.28
2018-03-14T11:02:53.109Z,96660.58
2018-03-14T11:05:20.562Z,96654.59
2018-03-14T11:07:48.168Z,96656.08
2018-03-14T11:10:15.571Z,96644.00
2018-03-14T11:12:43.056Z,96642.66
2018-03-14T11:15:10.808Z,96637.79
2018-03-14T11:17:38.252Z,96639.74
2018-03-14T11:20:05.795Z,96634.68
2018-03-14T11:22:33.411Z,96633.30
2018-03-14T11:25:00.817Z,96627.05
2018-03-14T11:27:28.250Z,96631.91
2018-03-14T11:29:55.648Z,96620.62
2018-03-14T11:32:23.152Z,96611.69
2018-03-14T11:34:50.631Z,96601.74
2018-03-14T11:37:18.066Z,96602.06
2018-03-14T11:39:46.096Z,96600.17
2018-03-14T11:42:13.574Z,96595.08
2018-03-14T11:44:41.022Z,96588.88
2018-03-14T11:47:08.436Z,96588.02
2018-03-14T11:49:35.910Z,96585.70
2018-03-14T11:52:03.380Z,96583.20
2018-03-14T11:54:31.474Z,96577.38
2018-03-14T11:56:58.915Z,96572.92
2018-03-14T11:59:26.387Z,96561.74
2018-03-14T12:01:53.897Z,96556.39
2018-03-14T12:04:21.590Z,96552.92
2018-03-14T12:06:49.315Z,96548.94
2018-03-14T12:09:16.809Z,96548.10
2018-03-14T12:11:44.243Z,96540.75
2018-03-14T12:14:11.696Z,96542.86
2018-03-14T12:16:39.162Z,96540.63
2018-03-14T12:19:06.568Z,96533.23
2018-03-14T12:21:35.041Z,96527.44
2018-03-14T12:24:02.525Z,96520.23
2018-03-14T12:26:31.070Z,96523.55
2018-03-14T12:28:58.486Z,96512.34
2018-03-14T12:31:25.945Z,96510.80
2018-03-14T12:33:53.378Z,96499.98
2018-03-14T12:36:20.835Z,96496.64
2018-03-14T12:38:48.296Z,96487.83
2018-03-14T12:41:15.729Z,96492.79
2018-03-14T12:43:43.169Z,96485.98
2018-03-14T12:46:10.656Z,96485.81
2018-03-14T12:48:38.088Z,96482.60
2018-03-14T12:51:05.597Z,96467.27
2018-03-14T12:53:33.090Z,96467.53
2018-03-14T12:56:00.528Z,96470.23
2018-03-14T12:58:28.052Z,96467.73
2018-03-14T13:00:55.541Z,96462.31
2018-03-14T13:03:23.016Z,96457.97
2018-03-14T13:05:50.672Z,96452.95
2018-03-14T13:08:18.212Z,96441.27
2018-03-14T13:10:45.697Z,96443.72
2018-03-14T13:13:13.108Z,96435.91
2018-03-14T13:15:40.628Z,96424.16
2018-03-14T13:18:08.276Z,96413.23
2018-03-14T13:20:35.726Z,96417.52
2018-03-14T13:23:03.273Z,96414.83
2018-03-14T13:25:30.695Z,96409.44
2018-03-14T13:27:58.228Z,96408.55
2018-03-14T13:30:25.840Z,96399.50
2018-03-14T13:32:53.462Z,96403.48
2018-03-14T13:35:21.021Z,96398.42
2018-03-14T13:37:48.514Z,96403.19
2018-03-14T13:40:16.037Z,96387.41
2018-03-14T13:42:43.532Z,96397.80
2018-03-14T13:45:10.994Z,96389.98
2018-03-14T13:47:38.453Z,96384.89
2018-03-14T13:50:05.887Z,96375.12
2018-03-14T13:52:33.855Z,96382.97
2018-03-14T13:55:01.299Z,96372.65
2018-03-14T13:57:28.789Z,96366.92
2018-03-14T13:59:56.491Z,96357.98
2018-03-14T14:02:24.259Z,96357.67
2018-03-14T14:04:51.875Z,96343.84
2018-03-14T14:09:53.043Z,96334.87
2018-03-14T14:12:20.500Z,96335.51
2018-03-14T14:14:48.059Z,96330.48
2018-03-14T14:17:15.561Z,96325.23
2018-03-14T14:19:43.083Z,96316.23
2018-03-14T14:22:10.792Z,96319.47
2018-03-14T14:24:38.296Z,96305.07
2018-03-14T14:27:06.040Z,96305.08
2018-03-14T14:29:33.507Z,96300.88
2018-03-14T14:32:00.948Z,96301.45
2018-03-14T14:34:28.364Z,96296.61
2018-03-14T14:36:56.263Z,96294.93
2018-03-14T14:39:23.723Z,96293.89
2018-03-14T14:41:51.199Z,96283.69
2018-03-14T14:44:18.674Z,96284.77
2018-03-14T14:46:46.163Z,96276.41
2018-03-14T14:49:13.583Z,96274.59
2018-03-14T14:51:41.066Z,96277.78
2018-03-14T14:54:08.618Z,96270.33
2018-03-14T14:56:36.022Z,96262.55
2018-03-14T14:59:03.478Z,96259.63
2018-03-14T15:01:31.142Z,96248.42
2018-03-14T15:03:58.639Z,96255.20
2018-03-14T15:06:26.116Z,96245.53
2018-03-14T15:08:54.085Z,96239.41
2018-03-14T15:11:21.844Z,96239.03
2018-03-14T15:13:49.305Z,96237.77
2018-03-14T15:16:16.807Z,96233.97
2018-03-14T15:18:44.377Z,96230.16
2018-03-14T15:21:11.899Z,96225.59
2018-03-14T15:23:39.335Z,96224.95
2018-03-14T15:26:06.884Z,96218.63
2018-03-14T15:28:34.304Z,96221.00
2018-03-14T15:31:01.781Z,96214.29
2018-03-14T15:33:29.217Z,96203.17
2018-03-14T15:35:56.784Z,96198.93
2018-03-14T15:38:24.375Z,96188.23
2018-03-14T15:40:51.914Z,96188.86
2018-03-14T15:43:19.386Z,96179.70
2018-03-14T15:45:46.886Z,96176.33
2018-03-14T15:48:14.318Z,96176.64
2018-03-14T15:50:41.727Z,96173.79
2018-03-14T15:53:09.189Z,96172.78
2018-03-14T15:55:36.607Z,96175.87
2018-03-14T15:58:04.216Z,96172.71
2018-03-14T16:00:31.624Z,96163.84
2018-03-14T16:02:59.085Z,96162.66
2018-03-14T16:05:26.557Z,96156.43
2018-03-14T16:07:53.988Z,96156.70
2018-03-14T16:10:21.839Z,96141.95
2018-03-14T16:12:49.329Z,96139.41
2018-03-14T16:15:16.793Z,96142.92
2018-03-14T16:17:44.258Z,96136.11
2018-03-14T16:20:11.802Z,96132.61
2018-03-14T16:22:39.246Z,96129.97
2018-03-14T16:25:06.733Z,96134.31
2018-03-14T16:27:34.355Z,96136.28
2018-03-14T16:30:01.846Z,96135.02
2018-03-14T16:32:29.436Z,96130.97
2018-03-14T16:34:57.014Z,96130.88
2018-03-14T16:37:24.471Z,96125.98
2018-03-14T16:39:51.868Z,96125.02
2018-03-14T16:42:20.539Z,96125.23
2018-03-14T16:44:48.487Z,96126.09
2018-03-14T16:47:15.928Z,96117.11
2018-03-14T16:49:43.454Z,96111.90
2018-03-14T16:52:11.204Z,96111.97
2018-03-14T16:54:38.649Z,96106.56
2018-03-14T16:57:06.469Z,96102.00
2018-03-14T16:59:34.331Z,96106.58
2018-03-14T17:02:01.965Z,96099.08
2018-03-14T17:04:29.463Z,96100.31
2018-03-14T17:06:56.868Z,96104.61
2018-03-14T17:09:24.807Z,96107.16
2018-03-14T17:11:52.221Z,96113.05
2018-03-14T17:14:27.135Z,96101.98
2018-03-14T17:16:47.113Z,96102.34
2018-03-14T17:19:14.594Z,96104.95
2018-03-14T17:21:42.004Z,96098.93
2018-03-14T17:24:09.442Z,96105.13
2018-03-14T17:26:37.025Z,96094.89
2018-03-14T17:29:04.460Z,96103.66
2018-03-14T17:31:31.898Z,96094.34
2018-03-14T17:33:59.286Z,96092.13
2018-03-14T17:36:26.850Z,96087.59
2018-03-14T17:38:54.357Z,96087.23
2018-03-14T17:41:21.838Z,96074.89
2018-03-14T17:43:49.346Z,96077.41
2018-03-14T17:46:16.808Z,96081.27
2018-03-14T17:48:44.303Z,96079.11
2018-03-14T17:51:11.791Z,96078.91
2018-03-14T17:53:39.238Z,96076.59
2018-03-14T17:56:07.249Z,96073.48
2018-03-14T17:58:34.689Z,96077.11
2018-03-14T18:01:02.328Z,96071.41
2018-03-14T18:03:29.762Z,96075.41
2018-03-14T18:05:57.228Z,96071.44
2018-03-14T18:08:24.682Z,96063.58
2018-03-14T18:10:52.175Z,96069.32
2018-03-14T18:13:19.795Z,96065.89
2018-03-14T18:18:21.678Z,96062.18
2018-03-14T18:20:49.371Z,96059.17
2018-03-14T18:23:16.904Z,96064.34
2018-03-14T18:25:44.541Z,96061.98
2018-03-14T18:28:11.989Z,96060.87
2018-03-14T18:30:40.229Z,96060.53
2018-03-14T18:33:07.703Z,96061.41
2018-03-14T18:35:35.233Z,96059.77
2018-03-14T18:38:03.163Z,96058.93
2018-03-14T18:40:31.492Z,96057.22
2018-03-14T18:42:58.888Z,96053.33
2018-03-14T18:45:26.349Z,96051.46
2018-03-14T18:47:54.434Z,96056.60
2018-03-14T18:50:21.858Z,96053.53
2018-03-14T18:52:49.245Z,96052.30
2018-03-14T18:55:16.784Z,96048.73
2018-03-14T18:57:44.383Z,96048.13
2018-03-14T19:00:12.094Z,96048.30
2018-03-14T19:02:40.421Z,96041.97
2018-03-14T19:05:07.943Z,96041.62
2018-03-14T19:07:35.393Z,96048.53
2018-03-14T19:10:02.885Z,96044.48
2018-03-14T19:12:30.321Z,96051.11
2018-03-14T19:14:57.871Z,96050.53
2018-03-14T19:17:25.334Z,96050.82
2018-03-14T19:19:52.823Z,96048.41
2018-03-14T19:22:20.280Z,96050.36
2018-03-14T19:24:47.788Z,96045.65
2018-03-14T19:27:15.374Z,96044.13
2018-03-14T19:29:43.014Z,96031.64
2018-03-14T19:32:10.889Z,96030.69
2018-03-14T19:34:38.381Z,96023.78
2018-03-14T19:37:05.806Z,96025.45
2018-03-14T19:39:33.287Z,96018.61
2018-03-14T19:42:00.732Z,96018.25
2018-03-14T19:44:28.262Z,96018.44
2018-03-14T19:46:55.776Z,96017.23
2018-03-14T19:49:23.283Z,96015.75
2018-03-14T19:51:50.668Z,96011.84
2018-03-14T19:54:18.301Z,96007.50
2018-03-14T19:56:45.812Z,96006.34
2018-03-14T19:59:13.489Z,96007.00
2018-03-14T20:01:41.599Z,96008.73
2018-03-14T20:04:09.216Z,96007.30
2018-03-14T20:06:37.207Z,95996.49
2018-03-14T20:09:04.822Z,95993.21
2018-03-14T20:11:32.286Z,95986.45
2018-03-14T20:13:59.762Z,95977.82
2018-03-14T20:16:27.255Z,95979.91
2018-03-14T20:18:54.794Z,95984.27
2018-03-14T20:21:22.220Z,95982.80
2018-03-14T20:23:49.695Z,95974.54
2018-03-14T20:26:17.226Z,95972.55
2018-03-14T20:28:44.667Z,95971.08
2018-03-14T20:31:12.264Z,95967.45
2018-03-14T20:33:40.773Z,95963.52
2018-03-14T20:36:08.948Z,95957.64
2018-03-14T20:38:36.523Z,95952.28
2018-03-14T20:41:04.142Z,95953.77
2018-03-14T20:43:31.627Z,95949.44
2018-03-14T20:45:59.181Z,95947.71
2018-03-14T20:48:27.415Z,95935.48
2018-03-14T20:50:54.856Z,95930.77
2018-03-14T20:53:22.534Z,95921.73
2018-03-14T20:55:50.133Z,95922.14
2018-03-14T20:58:17.578Z,95915.68
2018-03-14T21:00:45.554Z,95912.48
2018-03-14T21:03:13.116Z,95905.34
2018-03-14T21:05:40.552Z,95910.75
2018-03-14T21:08:08.338Z,95908.79
2018-03-14T21:10:35.782Z,95911.83
2018-03-14T21:13:03.757Z,95909.31
2018-03-14T21:15:31.156Z,95901.55
2018-03-14T21:17:58.569Z,95896.91
2018-03-14T21:20:26.501Z,95896.95
2018-03-14T21:22:53.958Z,95909.85
2018-03-14T21:25:21.394Z,95909.85
2018-03-14T21:27:48.936Z,95911.61
2018-03-14T21:30:16.454Z,95909.41
2018-03-14T21:32:43.881Z,95896.22
2018-03-14T21:35:11.302Z,95895.80
2018-03-14T21:37:38.730Z,95894.02
2018-03-14T21:40:06.185Z,95886.84
2018-03-14T21:42:33.626Z,95872.86
2018-03-14T21:45:01.098Z,95882.58
2018-03-14T21:47:28.542Z,95887.19
2018-03-14T21:49:55.927Z,95882.92
2018-03-14T21:52:23.568Z,95883.03
2018-03-14T21:54:51.005Z,95879.01
2018-03-14T21:57:19.352Z,95871.97
2018-03-14T21:59:46.805Z,95868.77
2018-03-14T22:02:14.228Z,95863.17
2018-03-14T22:04:41.695Z,95858.29
2018-03-14T22:07:09.218Z,95845.79
2018-03-14T22:09:36.732Z,95850.60
2018-03-14T22:12:04.246Z,95844.63
2018-03-14T22:14:31.820Z,95847.92
2018-03-14T22:16:59.103Z,95846.37
2018-03-14T22:19:26.831Z,95848.30
2018-03-14T22:21:55.130Z,95851.22
2018-03-14T22:24:22.676Z,95857.05
2018-03-14T22:26:50.366Z,95850.46
2018-03-14T22:29:17.812Z,95851.11
2018-03-14T22:31:45.273Z,95847.37
2018-03-14T22:34:12.741Z,95844.38
2018-03-14T22:36:40.151Z,95840.80
2018-03-14T22:39:07.588Z,95838.28
2018-03-14T22:41:34.983Z,95840.47
2018-03-14T22:44:02.430Z,95830.56
2018-03-14T22:46:29.895Z,95832.09
2018-03-14T22:48:57.284Z,95832.91
2018-03-14T22:51:24.772Z,95839.97
2018-03-14T22:53:52.202Z,95821.50
2018-03-14T22:56:19.673Z,95825.91
2018-03-14T22:58:47.129Z,95828.19
2018-03-14T23:01:14.573Z,95821.34
2018-03-14T23:03:42.164Z,95817.42
2018-03-14T23:06:10.411Z,95822.18
2018-03-14T23:08:38.024Z,95837.06
2018-03-14T23:11:05.441Z,95834.23
2018-03-14T23:13:32.937Z,95823.80
2018-03-14T23:16:00.423Z,95820.76
2018-03-14T23:18:27.924Z,95813.14
2018-03-14T23:20:55.402Z,95813.47
2018-03-14T23:23:22.908Z,95808.95
2018-03-14T23:25:50.358Z,95814.23
2018-03-14T23:28:17.770Z,95816.44
2018-03-14T23:30:45.251Z,95818.15
2018-03-14T23:33:13.234Z,95811.73
2018-03-14T23:35:40.761Z,95802.03
2018-03-14T23:38:08.312Z,95796.43
2018-03-14T23:40:35.769Z,95790.95
2018-03-14T23:43:03.235Z,95793.28
2018-03-14T23:45:30.722Z,95784.36
2018-03-14T23:47:58.122Z,95782.47
2018-03-14T23:50:25.544Z,95781.89
2018-03-14T23:52:52.999Z,95767.33
2018-03-14T23:55:20.484Z,95765.11
2018-03-14T23:57:48.067Z,95762.77
